Terminal Aerodrome Forecast
Issued by NWS Pueblo, CO

Home | Current Version | Previous Version | Text Only | Print | Product List | Glossary On
Versions: 1 2 3 4 5 6 7 8 9 10 11 12 13 14 15 16 17 18 19 20 21 22 23 24 25 26 27 28 29 30 31 32 33 34 35 36
000
FTUS45 KPUB 212326
TAFCOS
TAF
KCOS 212326Z 2200/2224 19012G22KT P6SM FEW045 SCT110
     FM220300 18010KT P6SM SCT050 BKN100
     FM220800 14006KT P6SM BKN020 OVC050
     FM221600 17008KT P6SM BKN035 OVC060
     FM222000 19013KT P6SM FEW050 SCT100=

USA.gov is the U.S. government's official web portal to all federal, state and local government web resources and services.